sensor_id;sensor_type;location;lat;lon;timestamp;pressure;altitude;pressure_sealevel;temperature;humidity
77124;BME280;66079;47.646;19.130;2023-06-26T00:00:27;100277.88;;;19.79;74.68
77124;BME280;66079;47.646;19.130;2023-06-26T00:03:30;100279.50;;;19.85;74.34
77124;BME280;66079;47.646;19.130;2023-06-26T00:06:34;100279.50;;;19.80;74.32
77124;BME280;66079;47.646;19.130;2023-06-26T00:09:38;100283.16;;;19.74;74.09
77124;BME280;66079;47.646;19.130;2023-06-26T00:12:41;100271.28;;;19.66;74.32
77124;BME280;66079;47.646;19.130;2023-06-26T00:15:43;100289.75;;;19.66;74.06
77124;BME280;66079;47.646;19.130;2023-06-26T00:18:46;100291.56;;;19.51;74.74
77124;BME280;66079;47.646;19.130;2023-06-26T00:21:48;100282.88;;;19.50;74.33
77124;BME280;66079;47.646;19.130;2023-06-26T00:24:51;100267.84;;;19.36;74.18
77124;BME280;66079;47.646;19.130;2023-06-26T00:27:54;100274.41;;;19.38;73.78
77124;BME280;66079;47.646;19.130;2023-06-26T00:30:57;100273.09;;;19.41;73.43
77124;BME280;66079;47.646;19.130;2023-06-26T00:33:59;100288.41;;;19.39;73.51
77124;BME280;66079;47.646;19.130;2023-06-26T00:37:02;100268.34;;;19.33;73.03
77124;BME280;66079;47.646;19.130;2023-06-26T00:40:06;100264.94;;;19.32;72.15
77124;BME280;66079;47.646;19.130;2023-06-26T00:43:09;100282.56;;;19.32;72.13
77124;BME280;66079;47.646;19.130;2023-06-26T00:46:15;100269.31;;;19.17;72.11
77124;BME280;66079;47.646;19.130;2023-06-26T00:49:18;100276.69;;;19.20;72.31
77124;BME280;66079;47.646;19.130;2023-06-26T00:52:20;100276.69;;;19.05;73.04
77124;BME280;66079;47.646;19.130;2023-06-26T00:55:23;100272.72;;;19.02;73.27
77124;BME280;66079;47.646;19.130;2023-06-26T00:58:26;100281.72;;;19.11;72.97
77124;BME280;66079;47.646;19.130;2023-06-26T01:01:28;100271.41;;;19.05;73.10
77124;BME280;66079;47.646;19.130;2023-06-26T01:04:31;100269.25;;;18.97;73.41
77124;BME280;66079;47.646;19.130;2023-06-26T01:07:35;100280.88;;;19.06;73.57
77124;BME280;66079;47.646;19.130;2023-06-26T01:10:38;100272.44;;;19.04;73.64
77124;BME280;66079;47.646;19.130;2023-06-26T01:13:43;100275.59;;;19.01;74.06
77124;BME280;66079;47.646;19.130;2023-06-26T01:16:49;100263.44;;;18.90;73.68
77124;BME280;66079;47.646;19.130;2023-06-26T01:19:54;100265.31;;;18.94;74.21
77124;BME280;66079;47.646;19.130;2023-06-26T01:23:29;100265.31;;;18.94;73.63
77124;BME280;66079;47.646;19.130;2023-06-26T01:26:34;100259.22;;;18.89;73.89
77124;BME280;66079;47.646;19.130;2023-06-26T01:29:37;100268.19;;;18.88;73.67
77124;BME280;66079;47.646;19.130;2023-06-26T01:32:43;100260.00;;;18.84;74.21
77124;BME280;66079;47.646;19.130;2023-06-26T01:35:47;100262.59;;;18.79;73.98
77124;BME280;66079;47.646;19.130;2023-06-26T01:38:50;100258.66;;;18.77;74.05
77124;BME280;66079;47.646;19.130;2023-06-26T01:41:53;100261.78;;;18.74;74.48
77124;BME280;66079;47.646;19.130;2023-06-26T01:44:56;100261.78;;;18.74;74.28
77124;BME280;66079;47.646;19.130;2023-06-26T01:48:00;100260.47;;;18.71;74.30
77124;BME280;66079;47.646;19.130;2023-06-26T01:51:05;100249.59;;;18.58;74.81
77124;BME280;66079;47.646;19.130;2023-06-26T01:54:10;100258.56;;;18.57;75.17
77124;BME280;66079;47.646;19.130;2023-06-26T01:57:17;100268.56;;;18.60;75.47
77124;BME280;66079;47.646;19.130;2023-06-26T02:00:21;100270.13;;;18.55;74.91
77124;BME280;66079;47.646;19.130;2023-06-26T02:03:24;100266.97;;;18.53;75.27
77124;BME280;66079;47.646;19.130;2023-06-26T02:06:26;100224.69;;;18.28;75.28
77124;BME280;66079;47.646;19.130;2023-06-26T02:09:29;100254.78;;;18.42;75.49
77124;BME280;66079;47.646;19.130;2023-06-26T02:12:31;100247.34;;;18.34;75.53
77124;BME280;66079;47.646;19.130;2023-06-26T02:15:34;100261.09;;;18.41;75.80
77124;BME280;66079;47.646;19.130;2023-06-26T02:18:36;100236.00;;;18.29;75.80
77124;BME280;66079;47.646;19.130;2023-06-26T02:21:39;100257.66;;;18.41;75.65
77124;BME280;66079;47.646;19.130;2023-06-26T02:24:42;100276.94;;;18.46;75.82
77124;BME280;66079;47.646;19.130;2023-06-26T02:27:45;100275.59;;;18.44;75.56
77124;BME280;66079;47.646;19.130;2023-06-26T02:30:48;100275.53;;;18.34;75.30
77124;BME280;66079;47.646;19.130;2023-06-26T02:33:50;100236.94;;;18.13;75.15
77124;BME280;66079;47.646;19.130;2023-06-26T02:36:53;100253.59;;;18.23;75.17
77124;BME280;66079;47.646;19.130;2023-06-26T02:39:58;100275.22;;;18.30;75.27
77124;BME280;66079;47.646;19.130;2023-06-26T02:43:01;100278.88;;;18.29;75.12
77124;BME280;66079;47.646;19.130;2023-06-26T02:46:05;100279.41;;;18.26;75.21
77124;BME280;66079;47.646;19.130;2023-06-26T02:49:08;100269.94;;;18.25;74.67
77124;BME280;66079;47.646;19.130;2023-06-26T02:52:10;100268.06;;;18.21;75.42
77124;BME280;66079;47.646;19.130;2023-06-26T02:55:13;100274.06;;;18.16;75.75
77124;BME280;66079;47.646;19.130;2023-06-26T02:58:15;100279.16;;;18.28;75.79
77124;BME280;66079;47.646;19.130;2023-06-26T03:01:18;100265.16;;;18.17;75.54
77124;BME280;66079;47.646;19.130;2023-06-26T03:04:23;100264.59;;;18.15;75.95
77124;BME280;66079;47.646;19.130;2023-06-26T03:07:26;100288.81;;;18.17;76.51
77124;BME280;66079;47.646;19.130;2023-06-26T03:10:28;100294.13;;;18.22;76.43
77124;BME280;66079;47.646;19.130;2023-06-26T03:13:32;100279.59;;;18.15;76.45
77124;BME280;66079;47.646;19.130;2023-06-26T03:16:35;100276.50;;;18.28;76.05
77124;BME280;66079;47.646;19.130;2023-06-26T03:19:37;100296.84;;;18.37;76.22
77124;BME280;66079;47.646;19.130;2023-06-26T03:23:06;100304.97;;;18.36;76.12
77124;BME280;66079;47.646;19.130;2023-06-26T03:26:09;100298.53;;;18.48;75.64
77124;BME280;66079;47.646;19.130;2023-06-26T03:29:12;100297.56;;;18.65;75.02
77124;BME280;66079;47.646;19.130;2023-06-26T03:32:16;100288.38;;;18.72;74.39
77124;BME280;66079;47.646;19.130;2023-06-26T03:35:19;100295.50;;;18.72;75.01
77124;BME280;66079;47.646;19.130;2023-06-26T03:38:22;100298.59;;;18.59;75.91
77124;BME280;66079;47.646;19.130;2023-06-26T03:41:27;100287.47;;;18.46;76.45
77124;BME280;66079;47.646;19.130;2023-06-26T03:44:30;100280.09;;;18.48;75.94
77124;BME280;66079;47.646;19.130;2023-06-26T03:47:32;100302.53;;;18.61;75.51
77124;BME280;66079;47.646;19.130;2023-06-26T03:50:35;100298.84;;;18.62;76.30
77124;BME280;66079;47.646;19.130;2023-06-26T03:53:38;100291.91;;;18.46;77.61
77124;BME280;66079;47.646;19.130;2023-06-26T03:56:41;100302.44;;;18.09;81.06
77124;BME280;66079;47.646;19.130;2023-06-26T03:59:43;100305.81;;;18.05;81.55
77124;BME280;66079;47.646;19.130;2023-06-26T04:02:46;100315.13;;;18.17;80.26
77124;BME280;66079;47.646;19.130;2023-06-26T04:05:49;100308.09;;;17.91;80.88
77124;BME280;66079;47.646;19.130;2023-06-26T04:08:52;100318.84;;;18.21;79.94
77124;BME280;66079;47.646;19.130;2023-06-26T04:11:55;100294.69;;;18.29;78.30
77124;BME280;66079;47.646;19.130;2023-06-26T04:14:57;100306.28;;;18.33;77.56
77124;BME280;66079;47.646;19.130;2023-06-26T04:18:01;100321.72;;;18.51;77.69
77124;BME280;66079;47.646;19.130;2023-06-26T04:21:11;100318.88;;;18.63;77.35
77124;BME280;66079;47.646;19.130;2023-06-26T04:24:14;100303.88;;;18.64;77.07
77124;BME280;66079;47.646;19.130;2023-06-26T04:27:17;100314.72;;;18.77;76.37
77124;BME280;66079;47.646;19.130;2023-06-26T04:30:20;100323.50;;;18.88;75.20
77124;BME280;66079;47.646;19.130;2023-06-26T04:33:24;100300.84;;;18.87;74.30
77124;BME280;66079;47.646;19.130;2023-06-26T04:36:27;100320.09;;;18.92;73.42
77124;BME280;66079;47.646;19.130;2023-06-26T04:39:31;100303.94;;;18.79;73.43
77124;BME280;66079;47.646;19.130;2023-06-26T04:42:33;100322.44;;;18.89;73.58
77124;BME280;66079;47.646;19.130;2023-06-26T04:45:36;100327.22;;;19.02;73.58
77124;BME280;66079;47.646;19.130;2023-06-26T04:48:39;100325.72;;;19.16;72.42
77124;BME280;66079;47.646;19.130;2023-06-26T04:51:42;100326.75;;;19.15;71.14
77124;BME280;66079;47.646;19.130;2023-06-26T04:54:44;100330.47;;;19.19;71.16
77124;BME280;66079;47.646;19.130;2023-06-26T04:57:47;100313.34;;;19.21;70.96
77124;BME280;66079;47.646;19.130;2023-06-26T05:00:50;100329.00;;;19.43;71.14
77124;BME280;66079;47.646;19.130;2023-06-26T05:03:52;100332.72;;;19.52;70.57
77124;BME280;66079;47.646;19.130;2023-06-26T05:06:55;100313.22;;;19.58;70.30
77124;BME280;66079;47.646;19.130;2023-06-26T05:09:58;100327.47;;;19.77;70.26
77124;BME280;66079;47.646;19.130;2023-06-26T05:13:00;100330.38;;;19.91;69.80
77124;BME280;66079;47.646;19.130;2023-06-26T05:16:03;100337.25;;;19.92;69.31
77124;BME280;66079;47.646;19.130;2023-06-26T05:19:06;100317.47;;;19.99;68.70
77124;BME280;66079;47.646;19.130;2023-06-26T05:22:09;100314.03;;;20.09;68.67
77124;BME280;66079;47.646;19.130;2023-06-26T05:25:12;100328.59;;;20.26;68.75
77124;BME280;66079;47.646;19.130;2023-06-26T05:28:15;100323.28;;;20.31;68.67
77124;BME280;66079;47.646;19.130;2023-06-26T05:31:18;100322.22;;;20.47;68.40
77124;BME280;66079;47.646;19.130;2023-06-26T05:34:22;100328.78;;;20.55;68.47
77124;BME280;66079;47.646;19.130;2023-06-26T05:37:26;100324.56;;;20.59;68.37
77124;BME280;66079;47.646;19.130;2023-06-26T05:40:29;100312.13;;;20.69;68.59
77124;BME280;66079;47.646;19.130;2023-06-26T05:43:32;100317.38;;;20.79;68.38
77124;BME280;66079;47.646;19.130;2023-06-26T05:46:35;100326.31;;;20.93;67.63
77124;BME280;66079;47.646;19.130;2023-06-26T05:49:37;100322.34;;;20.96;67.88
77124;BME280;66079;47.646;19.130;2023-06-26T05:52:40;100339.75;;;21.07;67.53
77124;BME280;66079;47.646;19.130;2023-06-26T05:55:43;100315.72;;;21.03;67.66
77124;BME280;66079;47.646;19.130;2023-06-26T05:58:47;100333.59;;;21.27;66.74
77124;BME280;66079;47.646;19.130;2023-06-26T06:01:49;100334.66;;;21.31;66.78
77124;BME280;66079;47.646;19.130;2023-06-26T06:04:52;100314.59;;;21.25;67.34
77124;BME280;66079;47.646;19.130;2023-06-26T06:07:54;100321.13;;;21.37;66.59
77124;BME280;66079;47.646;19.130;2023-06-26T06:11:00;100330.31;;;21.50;66.14
77124;BME280;66079;47.646;19.130;2023-06-26T06:14:03;100307.59;;;21.44;65.64
77124;BME280;66079;47.646;19.130;2023-06-26T06:17:05;100296.75;;;21.45;65.59
77124;BME280;66079;47.646;19.130;2023-06-26T06:20:08;100325.09;;;21.83;65.07
77124;BME280;66079;47.646;19.130;2023-06-26T06:23:12;100314.19;;;21.90;64.99
77124;BME280;66079;47.646;19.130;2023-06-26T06:26:14;100321.75;;;22.06;63.84
77124;BME280;66079;47.646;19.130;2023-06-26T06:29:17;100311.47;;;22.00;63.48
77124;BME280;66079;47.646;19.130;2023-06-26T06:32:21;100319.69;;;22.27;63.47
77124;BME280;66079;47.646;19.130;2023-06-26T06:35:24;100305.34;;;22.33;63.03
77124;BME280;66079;47.646;19.130;2023-06-26T06:38:31;100314.69;;;22.54;61.73
77124;BME280;66079;47.646;19.130;2023-06-26T06:41:34;100307.13;;;22.66;60.74
77124;BME280;66079;47.646;19.130;2023-06-26T06:44:40;100324.41;;;22.87;60.48
77124;BME280;66079;47.646;19.130;2023-06-26T06:47:43;100322.53;;;22.88;57.67
77124;BME280;66079;47.646;19.130;2023-06-26T06:50:45;100326.16;;;22.97;57.58
77124;BME280;66079;47.646;19.130;2023-06-26T06:53:48;100314.09;;;23.04;56.98
77124;BME280;66079;47.646;19.130;2023-06-26T06:56:50;100309.19;;;23.16;57.42
77124;BME280;66079;47.646;19.130;2023-06-26T06:59:53;100313.84;;;23.24;55.74
77124;BME280;66079;47.646;19.130;2023-06-26T07:02:56;100309.44;;;23.38;55.32
77124;BME280;66079;47.646;19.130;2023-06-26T07:05:59;100333.13;;;23.11;55.74
77124;BME280;66079;47.646;19.130;2023-06-26T07:09:01;100319.75;;;23.40;55.35
77124;BME280;66079;47.646;19.130;2023-06-26T07:12:05;100324.09;;;23.54;55.40
77124;BME280;66079;47.646;19.130;2023-06-26T07:15:08;100308.16;;;23.54;55.75
77124;BME280;66079;47.646;19.130;2023-06-26T07:18:10;100313.44;;;23.73;55.02
77124;BME280;66079;47.646;19.130;2023-06-26T07:21:13;100308.69;;;23.89;53.00
77124;BME280;66079;47.646;19.130;2023-06-26T07:24:15;100306.72;;;24.13;52.10
77124;BME280;66079;47.646;19.130;2023-06-26T07:27:19;100316.63;;;24.39;52.00
77124;BME280;66079;47.646;19.130;2023-06-26T07:30:22;100317.13;;;24.41;52.28
77124;BME280;66079;47.646;19.130;2023-06-26T07:33:26;100307.31;;;24.10;52.84
77124;BME280;66079;47.646;19.130;2023-06-26T07:36:29;100323.28;;;24.23;53.36
77124;BME280;66079;47.646;19.130;2023-06-26T07:39:31;100317.59;;;24.30;53.39
77124;BME280;66079;47.646;19.130;2023-06-26T07:42:34;100323.31;;;24.37;52.60
77124;BME280;66079;47.646;19.130;2023-06-26T07:45:37;100304.31;;;24.57;52.06
77124;BME280;66079;47.646;19.130;2023-06-26T07:48:40;100313.41;;;24.83;51.10
77124;BME280;66079;47.646;19.130;2023-06-26T07:51:42;100310.59;;;24.79;51.45
77124;BME280;66079;47.646;19.130;2023-06-26T07:54:45;100312.13;;;24.94;50.78
77124;BME280;66079;47.646;19.130;2023-06-26T07:57:48;100327.81;;;24.82;50.91
77124;BME280;66079;47.646;19.130;2023-06-26T08:00:52;100305.63;;;24.86;50.40
77124;BME280;66079;47.646;19.130;2023-06-26T08:03:55;100311.78;;;25.36;49.38
77124;BME280;66079;47.646;19.130;2023-06-26T08:07:00;100305.75;;;25.44;49.37
77124;BME280;66079;47.646;19.130;2023-06-26T08:10:03;100310.97;;;25.49;48.98
77124;BME280;66079;47.646;19.130;2023-06-26T08:13:06;100320.91;;;25.57;48.84
77124;BME280;66079;47.646;19.130;2023-06-26T08:16:08;100311.75;;;25.72;48.65
77124;BME280;66079;47.646;19.130;2023-06-26T08:19:12;100324.19;;;25.41;49.80
77124;BME280;66079;47.646;19.130;2023-06-26T08:22:15;100312.72;;;25.54;49.85
77124;BME280;66079;47.646;19.130;2023-06-26T08:25:17;100325.81;;;25.64;47.56
77124;BME280;66079;47.646;19.130;2023-06-26T08:28:20;100324.16;;;25.54;47.98
77124;BME280;66079;47.646;19.130;2023-06-26T08:31:22;100320.56;;;25.37;47.37
77124;BME280;66079;47.646;19.130;2023-06-26T08:34:25;100313.91;;;25.12;47.64
77124;BME280;66079;47.646;19.130;2023-06-26T08:37:27;100311.47;;;25.24;46.35
77124;BME280;66079;47.646;19.130;2023-06-26T08:40:30;100311.59;;;25.19;46.13
77124;BME280;66079;47.646;19.130;2023-06-26T08:43:35;100323.06;;;25.55;44.25
77124;BME280;66079;47.646;19.130;2023-06-26T08:46:37;100313.94;;;25.92;42.43
77124;BME280;66079;47.646;19.130;2023-06-26T08:49:53;100316.13;;;26.43;41.58
77124;BME280;66079;47.646;19.130;2023-06-26T08:56:07;100327.19;;;26.97;40.64
77124;BME280;66079;47.646;19.130;2023-06-26T08:59:10;100328.28;;;26.27;43.29
77124;BME280;66079;47.646;19.130;2023-06-26T09:02:15;100319.94;;;26.50;41.99
77124;BME280;66079;47.646;19.130;2023-06-26T09:05:18;100308.66;;;26.53;41.40
77124;BME280;66079;47.646;19.130;2023-06-26T09:08:21;100305.53;;;26.99;40.65
77124;BME280;66079;47.646;19.130;2023-06-26T09:11:23;100307.44;;;27.15;40.86
77124;BME280;66079;47.646;19.130;2023-06-26T09:14:26;100313.16;;;27.39;41.11
77124;BME280;66079;47.646;19.130;2023-06-26T09:17:30;100319.44;;;27.52;40.65
77124;BME280;66079;47.646;19.130;2023-06-26T09:20:34;100305.00;;;27.62;39.99
77124;BME280;66079;47.646;19.130;2023-06-26T09:23:37;100310.63;;;27.77;40.14
77124;BME280;66079;47.646;19.130;2023-06-26T09:26:41;100300.09;;;27.89;39.21
77124;BME280;66079;47.646;19.130;2023-06-26T09:29:45;100307.19;;;27.68;39.97
77124;BME280;66079;47.646;19.130;2023-06-26T09:32:49;100315.78;;;27.82;40.22
77124;BME280;66079;47.646;19.130;2023-06-26T09:35:53;100289.69;;;28.05;39.24
77124;BME280;66079;47.646;19.130;2023-06-26T09:38:55;100311.88;;;27.71;39.86
77124;BME280;66079;47.646;19.130;2023-06-26T09:41:58;100290.97;;;27.99;39.24
77124;BME280;66079;47.646;19.130;2023-06-26T09:45:02;100310.38;;;28.25;39.36
77124;BME280;66079;47.646;19.130;2023-06-26T09:48:05;100292.50;;;28.08;39.27
77124;BME280;66079;47.646;19.130;2023-06-26T09:51:11;100294.00;;;28.35;39.48
77124;BME280;66079;47.646;19.130;2023-06-26T09:54:16;100287.31;;;28.58;38.54
77124;BME280;66079;47.646;19.130;2023-06-26T09:57:20;100282.66;;;28.76;37.69
77124;BME280;66079;47.646;19.130;2023-06-26T10:00:22;100284.00;;;28.61;38.91
77124;BME280;66079;47.646;19.130;2023-06-26T10:03:25;100288.72;;;28.93;38.17
77124;BME280;66079;47.646;19.130;2023-06-26T10:06:45;100303.13;;;28.34;38.28
77124;BME280;66079;47.646;19.130;2023-06-26T10:09:51;100281.06;;;28.08;37.91
77124;BME280;66079;47.646;19.130;2023-06-26T10:13:01;100286.00;;;28.26;37.84
77124;BME280;66079;47.646;19.130;2023-06-26T10:16:07;100273.59;;;28.68;37.58
77124;BME280;66079;47.646;19.130;2023-06-26T10:19:12;100263.66;;;29.18;36.72
77124;BME280;66079;47.646;19.130;2023-06-26T10:22:17;100276.03;;;28.82;37.22
77124;BME280;66079;47.646;19.130;2023-06-26T10:25:21;100270.94;;;28.89;37.03
77124;BME280;66079;47.646;19.130;2023-06-26T10:28:27;100277.59;;;29.32;36.29
77124;BME280;66079;47.646;19.130;2023-06-26T10:31:31;100267.38;;;29.46;35.78
77124;BME280;66079;47.646;19.130;2023-06-26T10:34:34;100263.63;;;29.80;35.27
77124;BME280;66079;47.646;19.130;2023-06-26T10:37:44;100265.72;;;29.74;34.80
77124;BME280;66079;47.646;19.130;2023-06-26T10:40:47;100270.38;;;29.45;35.54
77124;BME280;66079;47.646;19.130;2023-06-26T10:47:04;100265.28;;;30.53;33.50
77124;BME280;66079;47.646;19.130;2023-06-26T10:50:24;100269.22;;;31.32;31.89
77124;BME280;66079;47.646;19.130;2023-06-26T10:53:28;100266.28;;;31.37;31.19
77124;BME280;66079;47.646;19.130;2023-06-26T10:56:41;100264.09;;;32.91;29.45
77124;BME280;66079;47.646;19.130;2023-06-26T10:59:44;100262.72;;;33.96;28.09
77124;BME280;66079;47.646;19.130;2023-06-26T11:02:50;100257.88;;;32.56;29.34
77124;BME280;66079;47.646;19.130;2023-06-26T11:06:09;100264.41;;;30.37;32.96
77124;BME280;66079;47.646;19.130;2023-06-26T11:09:18;100265.16;;;33.43;28.13
77124;BME280;66079;47.646;19.130;2023-06-26T11:15:42;100238.38;;;35.59;25.49
77124;BME280;66079;47.646;19.130;2023-06-26T11:18:47;100265.94;;;36.63;23.97
77124;BME280;66079;47.646;19.130;2023-06-26T11:28:00;100251.41;;;39.38;20.16
77124;BME280;66079;47.646;19.130;2023-06-26T11:31:02;100258.81;;;39.96;20.29
77124;BME280;66079;47.646;19.130;2023-06-26T11:34:10;100237.63;;;40.58;18.40
77124;BME280;66079;47.646;19.130;2023-06-26T11:37:17;100250.53;;;40.10;19.04
77124;BME280;66079;47.646;19.130;2023-06-26T11:40:20;100242.75;;;40.52;18.94
77124;BME280;66079;47.646;19.130;2023-06-26T11:43:23;100235.72;;;36.54;23.26
77124;BME280;66079;47.646;19.130;2023-06-26T11:46:26;100241.19;;;38.66;20.70
77124;BME280;66079;47.646;19.130;2023-06-26T11:49:30;100232.94;;;39.70;18.54
77124;BME280;66079;47.646;19.130;2023-06-26T11:52:33;100250.72;;;41.07;18.60
77124;BME280;66079;47.646;19.130;2023-06-26T11:55:41;100247.25;;;40.32;19.45
77124;BME280;66079;47.646;19.130;2023-06-26T11:59:06;100244.63;;;41.79;18.06
77124;BME280;66079;47.646;19.130;2023-06-26T12:02:13;100235.69;;;40.92;18.52
77124;BME280;66079;47.646;19.130;2023-06-26T12:05:17;100233.19;;;41.35;18.36
77124;BME280;66079;47.646;19.130;2023-06-26T12:08:20;100224.31;;;43.24;16.63
77124;BME280;66079;47.646;19.130;2023-06-26T12:11:23;100227.19;;;43.17;16.70
77124;BME280;66079;47.646;19.130;2023-06-26T12:14:28;100241.16;;;43.91;15.60
77124;BME280;66079;47.646;19.130;2023-06-26T12:17:31;100221.16;;;41.82;17.57
77124;BME280;66079;47.646;19.130;2023-06-26T12:20:39;100221.03;;;39.50;20.31
77124;BME280;66079;47.646;19.130;2023-06-26T12:23:42;100218.69;;;37.36;22.55
77124;BME280;66079;47.646;19.130;2023-06-26T12:26:48;100216.31;;;37.27;23.10
77124;BME280;66079;47.646;19.130;2023-06-26T12:29:53;100218.09;;;39.20;21.73
77124;BME280;66079;47.646;19.130;2023-06-26T12:32:56;100235.19;;;41.31;19.11
77124;BME280;66079;47.646;19.130;2023-06-26T12:35:59;100229.41;;;42.48;16.45
77124;BME280;66079;47.646;19.130;2023-06-26T12:39:02;100224.00;;;42.83;16.59
77124;BME280;66079;47.646;19.130;2023-06-26T12:42:05;100214.16;;;45.04;15.17
77124;BME280;66079;47.646;19.130;2023-06-26T12:45:11;100207.00;;;44.52;15.38
77124;BME280;66079;47.646;19.130;2023-06-26T12:48:42;100221.63;;;45.28;14.46
77124;BME280;66079;47.646;19.130;2023-06-26T12:51:49;100203.88;;;44.67;15.12
77124;BME280;66079;47.646;19.130;2023-06-26T12:54:53;100218.69;;;44.12;15.28
77124;BME280;66079;47.646;19.130;2023-06-26T12:57:57;100211.38;;;44.21;15.72
77124;BME280;66079;47.646;19.130;2023-06-26T13:00:59;100211.13;;;45.14;14.72
77124;BME280;66079;47.646;19.130;2023-06-26T13:04:02;100210.03;;;45.96;13.91
77124;BME280;66079;47.646;19.130;2023-06-26T13:07:09;100206.03;;;45.38;14.24
77124;BME280;66079;47.646;19.130;2023-06-26T13:10:11;100208.75;;;39.24;19.46
77124;BME280;66079;47.646;19.130;2023-06-26T13:13:14;100194.72;;;36.59;22.00
77124;BME280;66079;47.646;19.130;2023-06-26T13:16:17;100184.69;;;36.05;23.19
77124;BME280;66079;47.646;19.130;2023-06-26T13:19:21;100184.97;;;35.16;24.30
77124;BME280;66079;47.646;19.130;2023-06-26T13:22:24;100193.97;;;34.12;26.29
77124;BME280;66079;47.646;19.130;2023-06-26T13:25:26;100186.88;;;34.27;26.27
77124;BME280;66079;47.646;19.130;2023-06-26T13:28:29;100192.06;;;33.90;27.22
77124;BME280;66079;47.646;19.130;2023-06-26T13:31:32;100167.50;;;34.21;26.85
77124;BME280;66079;47.646;19.130;2023-06-26T13:34:35;100176.47;;;37.84;23.05
77124;BME280;66079;47.646;19.130;2023-06-26T13:37:37;100191.25;;;41.25;19.33
77124;BME280;66079;47.646;19.130;2023-06-26T13:40:40;100192.88;;;42.77;17.18
77124;BME280;66079;47.646;19.130;2023-06-26T13:43:43;100192.03;;;42.80;16.95
77124;BME280;66079;47.646;19.130;2023-06-26T13:46:46;100173.75;;;44.09;15.79
77124;BME280;66079;47.646;19.130;2023-06-26T13:49:49;100188.13;;;44.42;15.56
77124;BME280;66079;47.646;19.130;2023-06-26T13:52:51;100189.69;;;43.98;15.57
77124;BME280;66079;47.646;19.130;2023-06-26T13:55:54;100183.09;;;45.07;14.69
77124;BME280;66079;47.646;19.130;2023-06-26T13:58:56;100175.84;;;44.88;15.33
77124;BME280;66079;47.646;19.130;2023-06-26T14:01:59;100184.97;;;43.99;16.48
77124;BME280;66079;47.646;19.130;2023-06-26T14:05:02;100179.34;;;45.51;15.01
77124;BME280;66079;47.646;19.130;2023-06-26T14:08:08;100156.28;;;40.19;19.85
77124;BME280;66079;47.646;19.130;2023-06-26T14:11:10;100169.09;;;37.63;23.83
77124;BME280;66079;47.646;19.130;2023-06-26T14:14:13;100170.78;;;41.37;18.27
77124;BME280;66079;47.646;19.130;2023-06-26T14:17:15;100162.38;;;41.51;17.62
77124;BME280;66079;47.646;19.130;2023-06-26T14:20:18;100154.22;;;41.74;17.24
77124;BME280;66079;47.646;19.130;2023-06-26T14:23:21;100173.31;;;44.39;15.31
77124;BME280;66079;47.646;19.130;2023-06-26T14:26:24;100161.03;;;44.44;15.30
77124;BME280;66079;47.646;19.130;2023-06-26T14:29:26;100170.28;;;43.28;15.74
77124;BME280;66079;47.646;19.130;2023-06-26T14:32:29;100165.31;;;43.39;15.74
77124;BME280;66079;47.646;19.130;2023-06-26T14:35:32;100166.13;;;41.60;17.97
77124;BME280;66079;47.646;19.130;2023-06-26T14:38:35;100167.91;;;37.43;22.41
77124;BME280;66079;47.646;19.130;2023-06-26T14:41:38;100149.44;;;38.95;21.40
77124;BME280;66079;47.646;19.130;2023-06-26T14:44:41;100146.28;;;36.47;23.63
77124;BME280;66079;47.646;19.130;2023-06-26T14:47:44;100148.88;;;35.35;25.74
77124;BME280;66079;47.646;19.130;2023-06-26T14:50:46;100151.72;;;33.97;27.97
77124;BME280;66079;47.646;19.130;2023-06-26T14:53:49;100151.50;;;35.28;25.99
77124;BME280;66079;47.646;19.130;2023-06-26T14:56:51;100154.25;;;33.41;28.32
77124;BME280;66079;47.646;19.130;2023-06-26T14:59:54;100143.53;;;33.26;29.12
77124;BME280;66079;47.646;19.130;2023-06-26T15:02:56;100141.16;;;37.34;23.61
77124;BME280;66079;47.646;19.130;2023-06-26T15:06:00;100137.72;;;40.07;19.46
77124;BME280;66079;47.646;19.130;2023-06-26T15:09:03;100158.88;;;42.59;17.85
77124;BME280;66079;47.646;19.130;2023-06-26T15:12:06;100149.34;;;43.02;17.00
77124;BME280;66079;47.646;19.130;2023-06-26T15:15:09;100140.41;;;44.11;16.13
77124;BME280;66079;47.646;19.130;2023-06-26T15:18:12;100133.25;;;43.24;16.66
77124;BME280;66079;47.646;19.130;2023-06-26T15:21:15;100133.72;;;44.40;15.96
77124;BME280;66079;47.646;19.130;2023-06-26T15:24:17;100125.09;;;43.36;15.92
77124;BME280;66079;47.646;19.130;2023-06-26T15:27:20;100133.84;;;44.62;15.26
77124;BME280;66079;47.646;19.130;2023-06-26T15:30:26;100130.94;;;43.55;16.54
77124;BME280;66079;47.646;19.130;2023-06-26T15:33:29;100127.72;;;43.08;16.73
77124;BME280;66079;47.646;19.130;2023-06-26T15:36:31;100123.81;;;43.41;16.30
77124;BME280;66079;47.646;19.130;2023-06-26T15:39:35;100134.16;;;43.17;16.16
77124;BME280;66079;47.646;19.130;2023-06-26T15:42:45;100128.38;;;42.60;17.12
77124;BME280;66079;47.646;19.130;2023-06-26T15:45:48;100131.41;;;42.46;17.11
77124;BME280;66079;47.646;19.130;2023-06-26T15:48:51;100125.97;;;42.98;16.92
77124;BME280;66079;47.646;19.130;2023-06-26T15:51:54;100112.41;;;43.42;16.07
77124;BME280;66079;47.646;19.130;2023-06-26T15:54:56;100109.69;;;43.42;16.82
77124;BME280;66079;47.646;19.130;2023-06-26T15:57:58;100113.97;;;43.27;16.69
77124;BME280;66079;47.646;19.130;2023-06-26T16:01:02;100117.16;;;43.42;16.84
77124;BME280;66079;47.646;19.130;2023-06-26T16:04:05;100088.59;;;43.27;15.72